createdAt,value
2023-04-15T00:07:31.330Z,8.70
2023-04-15T00:12:42.390Z,7.45
2023-04-15T00:36:38.583Z,7.18
2023-04-15T00:41:43.294Z,6.72
2023-04-15T00:46:42.271Z,6.35
2023-04-15T00:51:52.547Z,7.13
2023-04-15T00:56:50.020Z,6.78
2023-04-15T01:01:46.996Z,6.13
2023-04-15T01:06:43.444Z,6.45
2023-04-15T01:11:49.405Z,6.40
2023-04-15T01:22:45.757Z,7.60
2023-04-15T01:27:42.506Z,7.60
2023-04-15T01:32:39.085Z,7.72
2023-04-15T01:37:36.728Z,7.60
2023-04-15T01:42:33.679Z,8.10
2023-04-15T01:47:30.343Z,8.18
2023-04-15T01:52:26.880Z,7.97
2023-04-15T01:57:23.262Z,9.65
2023-04-15T02:02:19.796Z,8.32
2023-04-15T02:07:16.466Z,8.32
2023-04-15T02:12:13.402Z,10.63
2023-04-15T02:17:09.819Z,10.57
2023-04-15T02:22:09.094Z,11.02
2023-04-15T02:27:06.028Z,10.75
2023-04-15T02:32:02.575Z,10.35
2023-04-15T02:36:59.079Z,10.85
2023-04-15T02:41:55.604Z,9.93
2023-04-15T02:46:53.599Z,10.27
2023-04-15T02:51:51.120Z,10.32
2023-04-15T02:56:47.783Z,10.85
2023-04-15T03:01:44.453Z,12.43
2023-04-15T03:06:40.869Z,12.13
2023-04-15T03:11:40.621Z,13.57
2023-04-15T03:16:37.085Z,13.23
2023-04-15T03:21:33.521Z,16.02
2023-04-15T03:26:31.599Z,14.73
2023-04-15T03:31:28.077Z,15.27
2023-04-15T03:36:24.626Z,17.02
2023-04-15T03:41:24.306Z,15.90
2023-04-15T03:46:21.370Z,15.65
2023-04-15T03:51:21.926Z,15.98
2023-04-15T04:14:35.198Z,15.68
2023-04-15T04:19:31.654Z,15.27
2023-04-15T04:24:28.180Z,14.65
2023-04-15T04:29:31.139Z,17.20
2023-04-15T04:34:29.067Z,15.18
2023-04-15T04:39:40.086Z,16.75
2023-04-15T04:50:03.493Z,19.42
2023-04-15T04:54:59.903Z,22.13
2023-04-15T04:59:56.560Z,21.75
2023-04-15T05:04:54.461Z,26.45
2023-04-15T05:09:50.909Z,23.65
2023-04-15T05:14:47.463Z,26.70
2023-04-15T05:19:43.895Z,24.77
2023-04-15T06:07:37.519Z,25.48
2023-04-15T06:12:34.127Z,27.20
2023-04-15T06:35:04.898Z,27.38
2023-04-15T06:40:01.384Z,28.70
2023-04-15T06:44:57.974Z,32.33
2023-04-15T06:50:21.913Z,29.35
2023-04-15T06:55:18.421Z,26.75
2023-04-15T07:00:15.648Z,30.40
2023-04-15T07:05:12.698Z,32.92
2023-04-15T07:10:09.931Z,28.45
2023-04-15T07:15:07.033Z,38.38
2023-04-15T07:20:04.824Z,32.42
2023-04-15T07:25:01.345Z,32.40
2023-04-15T07:29:57.843Z,31.77
2023-04-15T07:34:54.434Z,34.42
2023-04-15T07:40:42.314Z,33.05
2023-04-15T07:45:38.715Z,29.88
2023-04-15T07:50:35.496Z,29.80
2023-04-15T07:55:31.943Z,28.92
2023-04-15T08:00:28.412Z,31.77
2023-04-15T08:05:25.668Z,32.20
2023-04-15T08:10:22.501Z,29.40
2023-04-15T08:15:19.003Z,29.60
2023-04-15T08:20:15.434Z,29.65
2023-04-15T08:25:11.823Z,36.05
2023-04-15T08:30:08.963Z,31.23
2023-04-15T08:35:06.274Z,34.40
2023-04-15T08:40:02.797Z,32.55
2023-04-15T08:45:01.578Z,31.25
2023-04-15T08:49:58.550Z,31.95
2023-04-15T08:55:00.801Z,31.52
2023-04-15T08:59:57.755Z,30.63
2023-04-15T09:04:54.172Z,34.42
2023-04-15T09:09:51.568Z,32.03
2023-04-15T09:14:49.351Z,32.55
2023-04-15T09:19:45.961Z,31.40
2023-04-15T09:24:43.372Z,30.90
2023-04-15T09:29:41.743Z,34.60
2023-04-15T09:34:38.336Z,31.08
2023-04-15T09:39:51.910Z,36.03
2023-04-15T09:44:48.383Z,30.95
2023-04-15T09:49:56.518Z,30.15
2023-04-15T09:54:56.005Z,27.80
2023-04-15T09:59:52.721Z,27.75
2023-04-15T10:04:49.686Z,24.58
2023-04-15T10:09:46.907Z,25.58
2023-04-15T10:14:44.458Z,27.00
2023-04-15T10:19:41.707Z,25.23
2023-04-15T10:24:38.968Z,21.90
2023-04-15T10:29:35.840Z,21.42
2023-04-15T10:34:32.684Z,19.08
2023-04-15T10:39:41.149Z,19.85
2023-04-15T10:44:38.955Z,19.15
2023-04-15T10:49:42.605Z,18.50
2023-04-15T10:54:39.558Z,16.35
2023-04-15T10:59:37.756Z,16.38
2023-04-15T11:04:53.244Z,18.63
2023-04-15T11:09:49.802Z,14.02
2023-04-15T11:14:46.617Z,12.85
2023-04-15T11:19:43.650Z,13.90
2023-04-15T11:24:52.041Z,9.90
2023-04-15T11:29:48.615Z,12.98
2023-04-15T11:34:46.577Z,13.38
2023-04-15T11:39:43.020Z,14.45
2023-04-15T11:44:39.440Z,14.38
2023-04-15T11:49:40.071Z,14.48
2023-04-15T11:54:37.438Z,13.73
2023-04-15T11:59:46.001Z,13.50
2023-04-15T12:04:43.026Z,12.13
2023-04-15T12:09:40.064Z,12.95
2023-04-15T12:14:38.174Z,13.35
2023-04-15T12:19:41.599Z,11.32
2023-04-15T12:24:38.599Z,12.88
2023-04-15T12:29:36.938Z,11.05
2023-04-15T12:34:45.250Z,11.52
2023-04-15T12:39:43.431Z,12.48
2023-04-15T12:44:40.376Z,12.27
2023-04-15T12:49:37.536Z,12.88
2023-04-15T12:54:34.697Z,10.52
2023-04-15T12:59:31.226Z,11.18
2023-04-15T13:04:30.619Z,12.55
2023-04-15T13:09:27.261Z,11.95
2023-04-15T13:14:23.719Z,10.75
2023-04-15T13:19:20.137Z,13.43
2023-04-15T13:24:16.589Z,12.88
2023-04-15T13:29:14.020Z,12.00
2023-04-15T13:34:10.561Z,10.60
2023-04-15T13:39:07.045Z,12.05
2023-04-15T13:44:03.583Z,11.68
2023-04-15T13:49:00.162Z,12.15
2023-04-15T13:53:58.127Z,11.65
2023-04-15T13:58:58.692Z,10.65
2023-04-15T14:03:55.768Z,11.13
2023-04-15T14:08:53.082Z,11.10
2023-04-15T14:13:49.625Z,9.48
2023-04-15T14:18:48.240Z,10.13
2023-04-15T14:23:44.720Z,12.00
2023-04-15T14:28:41.142Z,11.52
2023-04-15T14:33:37.604Z,12.00
2023-04-15T14:38:38.313Z,10.57
2023-04-15T14:43:35.275Z,10.00
2023-04-15T14:48:32.065Z,9.25
2023-04-15T14:53:28.589Z,9.25
2023-04-15T14:58:25.513Z,9.70
2023-04-15T15:03:22.212Z,10.00
2023-04-15T15:08:18.765Z,9.27
2023-04-15T15:13:15.692Z,10.98
2023-04-15T15:18:12.322Z,10.57
2023-04-15T15:23:08.855Z,10.25
2023-04-15T15:28:05.824Z,9.57
2023-04-15T15:33:02.448Z,9.73
2023-04-15T15:38:00.515Z,10.65
2023-04-15T15:42:56.985Z,11.27
2023-04-15T15:47:53.571Z,10.70
2023-04-15T15:52:50.195Z,11.68
2023-04-15T15:57:46.720Z,10.55
2023-04-15T16:07:42.993Z,11.15
2023-04-15T16:12:39.732Z,12.80
2023-04-15T16:17:36.317Z,11.48
2023-04-15T16:22:34.961Z,12.50
2023-04-15T16:27:31.520Z,14.02
2023-04-15T16:32:28.096Z,12.80
2023-04-15T16:37:24.541Z,14.18
2023-04-15T16:42:21.034Z,14.95
2023-04-15T16:47:17.573Z,14.18
2023-04-15T16:52:14.144Z,15.73
2023-04-15T16:57:10.586Z,14.45
2023-04-15T17:02:11.339Z,16.02
2023-04-15T17:07:08.934Z,15.77
2023-04-15T17:12:06.124Z,15.00
2023-04-15T17:17:02.527Z,14.80
2023-04-15T17:21:59.545Z,15.25
2023-04-15T17:26:56.767Z,15.32
2023-04-15T17:31:54.642Z,14.90
2023-04-15T17:36:53.418Z,15.27
2023-04-15T17:41:49.865Z,15.05
2023-04-15T17:46:47.157Z,16.00
2023-04-15T17:51:44.881Z,16.98
2023-04-15T17:56:41.615Z,16.63
2023-04-15T18:01:38.395Z,15.38
2023-04-15T18:06:38.725Z,18.33
2023-04-15T18:11:35.720Z,17.85
2023-04-15T18:16:32.533Z,17.23
2023-04-15T18:21:29.182Z,18.08
2023-04-15T18:26:25.958Z,20.25
2023-04-15T18:31:22.745Z,19.33
2023-04-15T18:36:19.381Z,18.77
2023-04-15T18:41:18.904Z,17.35
2023-04-15T18:46:16.744Z,16.75
2023-04-15T18:51:13.791Z,16.75
2023-04-15T18:56:10.522Z,16.83
2023-04-15T19:01:07.138Z,16.58
2023-04-15T19:06:03.964Z,16.67
2023-04-15T19:11:00.884Z,16.30
2023-04-15T19:15:57.537Z,17.52
2023-04-15T19:20:55.983Z,18.55
2023-04-15T19:25:52.482Z,17.25
2023-04-15T19:30:49.181Z,16.80
2023-04-15T19:35:49.835Z,15.75
2023-04-15T19:40:46.920Z,16.05
2023-04-15T19:45:46.225Z,16.27
2023-04-15T19:50:43.138Z,15.90
2023-04-15T19:55:40.005Z,16.35
2023-04-15T20:00:37.002Z,16.88
2023-04-15T20:05:33.771Z,16.98
2023-04-15T20:10:31.989Z,17.60
2023-04-15T20:15:28.893Z,17.02
2023-04-15T20:20:25.433Z,16.85
2023-04-15T20:25:22.101Z,16.23
2023-04-15T20:30:19.211Z,16.60
2023-04-15T20:35:16.238Z,15.82
2023-04-15T20:40:15.583Z,16.58
2023-04-15T20:45:12.303Z,16.20
2023-04-15T20:50:10.001Z,15.70
2023-04-15T20:55:09.982Z,15.43
2023-04-15T21:00:09.280Z,15.30
2023-04-15T21:05:06.238Z,16.88
2023-04-15T21:10:02.885Z,14.85
2023-04-15T21:14:59.334Z,16.40
2023-04-15T21:19:56.052Z,14.27
2023-04-15T21:24:52.473Z,15.68
2023-04-15T21:29:49.708Z,14.68
2023-04-15T21:34:47.200Z,14.65
2023-04-15T21:39:45.058Z,16.83
2023-04-15T21:44:42.767Z,16.35
2023-04-15T21:49:40.096Z,15.20
2023-04-15T21:54:38.015Z,16.35
2023-04-15T21:59:34.519Z,16.35
2023-04-15T22:04:30.996Z,17.42
2023-04-15T22:09:28.150Z,15.00
2023-04-15T22:14:25.337Z,15.82
2023-04-15T22:19:22.223Z,14.73
2023-04-15T22:24:32.973Z,14.50
2023-04-15T22:29:36.549Z,15.60
2023-04-15T22:34:33.993Z,16.33
2023-04-15T22:39:30.420Z,18.23
2023-04-15T22:44:26.816Z,16.23
2023-04-15T22:49:23.249Z,16.40
2023-04-15T22:54:20.806Z,16.02
2023-04-15T22:59:17.449Z,14.82
2023-04-15T23:04:23.638Z,18.58
2023-04-15T23:09:23.715Z,16.30
2023-04-15T23:14:20.322Z,16.27
2023-04-15T23:19:26.393Z,16.88
2023-04-15T23:24:23.064Z,17.88
2023-04-15T23:29:46.664Z,16.67
2023-04-15T23:34:52.368Z,18.23
2023-04-15T23:40:04.197Z,16.13
2023-04-15T23:51:27.095Z,15.65
2023-04-15T23:56:23.519Z,16.27
